Time;durP1;ratioP1;P1;durP2;ratioP2;P2;SDS_P1;SDS_P2;PMS_P1;PMS_P2;Temp;Humidity;BMP_temperature;BMP_pressure;BME280_temperature;BME280_humidity;BME280_pressure;Samples;Min_cycle;Max_cycle;Signal;HPM_P1;HPM_P2
2022/10/03 00:00:13;;;;;;;7.20;3.47;;;;;;;;;;5102576;28;20214;-76
2022/10/03 00:02:45;;;;;;;5.90;4.10;;;;;;;;;;5123794;28;20259;-77
2022/10/03 00:05:29;;;;;;;5.93;4.33;;;;;;;;;;5095787;28;20168;-77
2022/10/03 00:08:06;;;;;;;6.90;3.90;;;;;;;;;;5123988;28;20201;-77
2022/10/03 00:10:50;;;;;;;5.87;4.47;;;;;;;;;;5099170;28;20187;-77
2022/10/03 00:13:18;;;;;;;5.27;4.73;;;;;;;;;;5102859;28;20183;-76
2022/10/03 00:15:48;;;;;;;6.03;4.50;;;;;;;;;;5101828;28;20176;-77
2022/10/03 00:18:18;;;;;;;5.03;4.47;;;;;;;;;;5102216;28;20199;-77
2022/10/03 00:21:00;;;;;;;7.43;5.10;;;;;;;;;;5100886;28;20213;-76
2022/10/03 00:23:34;;;;;;;4.63;4.20;;;;;;;;;;5102807;28;20202;-77
2022/10/03 00:26:26;;;;;;;8.27;4.47;;;;;;;;;;5095749;28;20218;-77
2022/10/03 00:29:03;;;;;;;5.83;4.60;;;;;;;;;;5119554;28;20180;-77
2022/10/03 00:31:57;;;;;;;5.63;5.03;;;;;;;;;;5119169;28;20172;-77
2022/10/03 00:34:26;;;;;;;7.10;5.07;;;;;;;;;;5051980;28;20217;-76
2022/10/03 00:37:26;;;;;;;5.43;4.80;;;;;;;;;;5106945;28;20171;-77
2022/10/03 00:40:10;;;;;;;6.10;3.97;;;;;;;;;;5012136;28;20183;-76
2022/10/03 00:42:49;;;;;;;5.27;4.70;;;;;;;;;;5011981;28;20194;-76
2022/10/03 00:45:33;;;;;;;6.30;4.30;;;;;;;;;;5017358;28;20186;-77
2022/10/03 00:48:04;;;;;;;7.13;4.87;;;;;;;;;;5011258;28;20219;-77
2022/10/03 00:50:48;;;;;;;6.70;5.23;;;;;;;;;;5030149;28;20203;-76
2022/10/03 00:53:32;;;;;;;8.70;5.07;;;;;;;;;;5021950;28;20184;-77
2022/10/03 00:56:05;;;;;;;5.53;4.80;;;;;;;;;;5017769;28;20182;-76
2022/10/03 00:58:39;;;;;;;7.60;5.63;;;;;;;;;;5008898;28;20309;-77
2022/10/03 01:01:23;;;;;;;7.83;5.33;;;;;;;;;;5012400;28;20215;-76
2022/10/03 01:03:55;;;;;;;6.90;4.97;;;;;;;;;;5008198;28;20175;-76
2022/10/03 01:06:35;;;;;;;7.23;5.30;;;;;;;;;;5007502;28;20183;-77
2022/10/03 01:09:19;;;;;;;7.40;5.13;;;;;;;;;;5020610;28;20491;-76
2022/10/03 01:12:11;;;;;;;7.63;5.27;;;;;;;;;;5014588;28;20257;-76
2022/10/03 01:14:51;;;;;;;6.70;5.30;;;;;;;;;;5058429;28;20188;-76
2022/10/03 01:17:37;;;;;;;6.90;5.50;;;;;;;;;;5102208;28;20308;-76
2022/10/03 01:20:21;;;;;;;7.43;4.93;;;;;;;;;;5088723;27;20189;-77
2022/10/03 01:23:04;;;;;;;7.97;4.13;;;;;;;;;;5101860;28;20200;-76
2022/10/03 01:25:30;;;;;;;4.43;3.97;;;;;;;;;;5102451;28;20211;-77
2022/10/03 01:30:53;;;;;;;5.70;5.20;;;;;;;;;;5101725;28;20195;-76
2022/10/03 01:33:27;;;;;;;5.33;4.80;;;;;;;;;;5106895;28;20252;-77
2022/10/03 01:35:57;;;;;;;5.90;5.30;;;;;;;;;;5116692;27;20183;-77
2022/10/03 01:38:40;;;;;;;8.37;6.53;;;;;;;;;;5104326;28;20218;-76
2022/10/03 01:41:24;;;;;;;8.13;6.83;;;;;;;;;;5101064;28;20169;-77
2022/10/03 01:43:53;;;;;;;6.43;5.80;;;;;;;;;;5097569;28;20181;-77
2022/10/03 01:46:27;;;;;;;8.17;6.40;;;;;;;;;;5103053;28;20187;-77
2022/10/03 01:48:59;;;;;;;9.43;6.83;;;;;;;;;;5103192;28;20498;-77
2022/10/03 01:51:31;;;;;;;7.63;6.83;;;;;;;;;;5107699;28;20265;-76
2022/10/03 01:54:03;;;;;;;12.47;7.10;;;;;;;;;;5106588;28;20208;-76
2022/10/03 01:56:38;;;;;;;10.20;7.17;;;;;;;;;;5100183;28;20183;-76
2022/10/03 01:59:09;;;;;;;7.47;6.40;;;;;;;;;;5123045;27;20230;-76
2022/10/03 02:01:57;;;;;;;11.70;8.17;;;;;;;;;;5121902;27;20172;-77
2022/10/03 02:04:40;;;;;;;7.50;6.70;;;;;;;;;;5104363;27;20237;-77
2022/10/03 02:07:20;;;;;;;7.60;6.63;;;;;;;;;;5100125;27;20286;-77
2022/10/03 02:10:00;;;;;;;6.93;5.40;;;;;;;;;;5106250;28;20187;-77
2022/10/03 02:12:39;;;;;;;9.60;5.63;;;;;;;;;;5113166;27;20202;-76
2022/10/03 02:15:17;;;;;;;8.20;6.90;;;;;;;;;;5100736;27;20265;-77
2022/10/03 02:17:52;;;;;;;11.53;6.70;;;;;;;;;;5100204;28;20200;-76
2022/10/03 02:20:17;;;;;;;10.67;6.43;;;;;;;;;;5127118;27;20290;-76
2022/10/03 02:22:50;;;;;;;10.93;6.80;;;;;;;;;;5108549;27;20207;-76
2022/10/03 02:25:24;;;;;;;7.97;5.90;;;;;;;;;;5097782;27;20267;-77
2022/10/03 02:27:59;;;;;;;9.10;5.90;;;;;;;;;;5105055;27;20175;-77
2022/10/03 02:30:56;;;;;;;13.60;7.17;;;;;;;;;;5101046;27;20281;-76
2022/10/03 02:33:32;;;;;;;11.70;6.10;;;;;;;;;;5075004;27;20223;-76
2022/10/03 02:36:16;;;;;;;9.20;6.07;;;;;;;;;;5108335;27;20186;-76
2022/10/03 02:38:45;;;;;;;11.50;6.80;;;;;;;;;;5123602;27;20278;-76
2022/10/03 02:41:22;;;;;;;8.37;6.87;;;;;;;;;;5105824;27;20183;-76
2022/10/03 02:44:06;;;;;;;11.53;6.63;;;;;;;;;;5105861;27;20267;-76
2022/10/03 02:46:50;;;;;;;8.97;6.83;;;;;;;;;;5104990;27;20197;-77
2022/10/03 02:49:30;;;;;;;9.80;7.00;;;;;;;;;;5094849;27;20180;-76
2022/10/03 02:51:55;;;;;;;11.00;7.57;;;;;;;;;;5099607;28;20224;-76
2022/10/03 02:54:24;;;;;;;12.47;7.80;;;;;;;;;;5100918;27;20203;-77
2022/10/03 02:56:50;;;;;;;8.27;7.10;;;;;;;;;;5100510;28;20180;-76
2022/10/03 02:59:21;;;;;;;13.50;8.57;;;;;;;;;;5100848;27;20227;-77
2022/10/03 03:01:53;;;;;;;13.20;10.17;;;;;;;;;;5118246;27;20236;-76
2022/10/03 03:04:37;;;;;;;9.73;6.90;;;;;;;;;;5107080;27;20172;-76
2022/10/03 03:07:38;;;;;;;13.37;9.10;;;;;;;;;;5095125;28;20198;-77
2022/10/03 03:10:18;;;;;;;14.70;9.80;;;;;;;;;;5048101;28;20200;-77
2022/10/03 03:12:49;;;;;;;11.73;9.63;;;;;;;;;;5029720;28;20189;-77
2022/10/03 03:15:24;;;;;;;9.63;7.00;;;;;;;;;;5028567;28;20174;-76
2022/10/03 03:18:03;;;;;;;8.83;6.47;;;;;;;;;;5031188;28;20371;-76
2022/10/03 03:20:28;;;;;;;7.57;6.47;;;;;;;;;;5048297;28;20299;-77
2022/10/03 03:23:06;;;;;;;8.27;6.67;;;;;;;;;;5046530;28;20214;-77
2022/10/03 03:25:33;;;;;;;9.10;6.47;;;;;;;;;;5033205;28;20182;-77
2022/10/03 03:28:10;;;;;;;8.43;5.83;;;;;;;;;;5050514;28;20177;-77
2022/10/03 03:30:45;;;;;;;8.27;6.73;;;;;;;;;;5025127;28;20202;-76
2022/10/03 03:33:43;;;;;;;9.60;7.07;;;;;;;;;;5029960;28;20268;-76
2022/10/03 03:36:09;;;;;;;8.70;6.50;;;;;;;;;;5012004;28;20344;-77
2022/10/03 03:38:39;;;;;;;9.50;7.80;;;;;;;;;;5030810;28;20225;-77
2022/10/03 03:41:11;;;;;;;11.47;8.40;;;;;;;;;;5030071;28;20236;-76
2022/10/03 03:43:40;;;;;;;10.33;7.40;;;;;;;;;;5073178;27;20187;-76
2022/10/03 03:46:05;;;;;;;15.67;9.07;;;;;;;;;;5100895;28;20183;-79
2022/10/03 03:48:47;;;;;;;16.40;9.57;;;;;;;;;;5108429;27;20322;-80
2022/10/03 03:51:12;;;;;;;12.10;8.40;;;;;;;;;;5104237;28;20233;-79
2022/10/03 03:53:37;;;;;;;13.70;9.03;;;;;;;;;;5105277;28;20180;-79
2022/10/03 03:56:22;;;;;;;17.90;10.27;;;;;;;;;;5105953;28;20176;-79
2022/10/03 03:58:50;;;;;;;13.67;8.77;;;;;;;;;;5088669;28;20260;-79
2022/10/03 04:01:33;;;;;;;12.40;8.63;;;;;;;;;;5098391;28;20180;-79
2022/10/03 04:04:11;;;;;;;11.67;8.20;;;;;;;;;;5098873;28;20386;-76
2022/10/03 04:06:55;;;;;;;13.37;8.67;;;;;;;;;;5096349;28;20238;-76
2022/10/03 04:09:20;;;;;;;11.73;8.20;;;;;;;;;;5100840;28;20175;-77
2022/10/03 04:11:55;;;;;;;10.60;8.37;;;;;;;;;;5098958;28;20190;-77
2022/10/03 04:14:29;;;;;;;11.37;8.13;;;;;;;;;;5095965;28;20180;-76
2022/10/03 04:20:13;;;;;;;11.27;7.43;;;;;;;;;;5103198;28;20190;-77
2022/10/03 04:22:48;;;;;;;9.77;7.70;;;;;;;;;;5100283;28;20190;-76
2022/10/03 04:25:19;;;;;;;13.43;8.67;;;;;;;;;;5100774;28;20178;-76
2022/10/03 04:28:03;;;;;;;14.47;8.27;;;;;;;;;;5104873;28;20231;-76
2022/10/03 04:30:47;;;;;;;14.03;9.13;;;;;;;;;;5104036;28;20183;-76
2022/10/03 04:33:21;;;;;;;13.63;8.23;;;;;;;;;;5109070;28;20215;-76
2022/10/03 04:36:05;;;;;;;12.30;7.70;;;;;;;;;;5105790;28;20187;-76
2022/10/03 04:38:49;;;;;;;20.13;7.70;;;;;;;;;;5096983;28;20201;-78
2022/10/03 04:41:26;;;;;;;13.33;8.63;;;;;;;;;;5107466;28;20185;-79
2022/10/03 04:44:00;;;;;;;18.03;10.50;;;;;;;;;;5111813;28;20175;-79
2022/10/03 04:46:38;;;;;;;19.90;11.10;;;;;;;;;;5105271;28;20217;-79
2022/10/03 04:49:10;;;;;;;25.93;9.13;;;;;;;;;;5097610;28;20216;-79
2022/10/03 04:51:54;;;;;;;28.43;11.63;;;;;;;;;;5100517;28;20196;-79
2022/10/03 04:54:29;;;;;;;94.50;16.17;;;;;;;;;;5101515;28;20185;-79
2022/10/03 04:57:13;;;;;;;31.17;9.93;;;;;;;;;;5107165;28;20209;-79
2022/10/03 04:59:47;;;;;;;27.57;9.50;;;;;;;;;;5087115;28;20291;-78
2022/10/03 05:02:13;;;;;;;38.27;11.53;;;;;;;;;;5086820;28;20211;-79
2022/10/03 05:04:58;;;;;;;28.87;10.53;;;;;;;;;;5088176;28;20183;-78
2022/10/03 05:07:23;;;;;;;29.40;11.40;;;;;;;;;;5086958;28;20271;-79
2022/10/03 05:09:55;;;;;;;45.57;11.20;;;;;;;;;;5080271;28;20260;-79
2022/10/03 05:12:39;;;;;;;54.70;13.13;;;;;;;;;;5082355;28;20181;-79
2022/10/03 05:15:20;;;;;;;46.70;10.17;;;;;;;;;;5077833;28;20170;-79
2022/10/03 05:18:01;;;;;;;38.20;11.00;;;;;;;;;;5094285;28;20239;-79
2022/10/03 05:20:32;;;;;;;76.17;13.27;;;;;;;;;;5088311;28;20197;-79
2022/10/03 05:23:00;;;;;;;40.37;12.57;;;;;;;;;;5083577;28;20173;-79
2022/10/03 05:25:27;;;;;;;45.03;11.37;;;;;;;;;;5082231;28;20176;-79
2022/10/03 05:28:04;;;;;;;36.50;12.40;;;;;;;;;;5076615;28;20315;-78
2022/10/03 05:30:38;;;;;;;25.27;9.97;;;;;;;;;;5086536;28;20192;-79
2022/10/03 05:33:19;;;;;;;25.87;11.20;;;;;;;;;;5087239;28;20252;-79
2022/10/03 05:36:04;;;;;;;19.67;10.97;;;;;;;;;;5085903;28;20567;-79
2022/10/03 05:38:48;;;;;;;21.67;13.23;;;;;;;;;;5084845;28;20201;-78
2022/10/03 05:41:24;;;;;;;13.33;10.73;;;;;;;;;;5076135;28;20181;-79
2022/10/03 05:44:00;;;;;;;18.93;12.03;;;;;;;;;;5078546;28;20180;-79
2022/10/03 05:46:52;;;;;;;23.93;13.10;;;;;;;;;;5083804;28;20183;-76
2022/10/03 05:49:37;;;;;;;26.53;14.07;;;;;;;;;;5082286;28;20192;-77
2022/10/03 05:52:12;;;;;;;24.87;13.17;;;;;;;;;;5071923;28;20196;-77
2022/10/03 05:54:56;;;;;;;25.60;12.33;;;;;;;;;;5079270;28;20276;-76
2022/10/03 05:57:24;;;;;;;19.07;12.17;;;;;;;;;;5085615;27;20189;-76
2022/10/03 05:59:50;;;;;;;17.53;11.47;;;;;;;;;;5102067;28;20208;-76
2022/10/03 06:02:15;;;;;;;16.57;11.47;;;;;;;;;;5107762;27;20284;-76
2022/10/03 06:04:59;;;;;;;18.63;12.53;;;;;;;;;;5122407;27;20180;-78
2022/10/03 06:07:29;;;;;;;19.30;13.43;;;;;;;;;;5100456;27;20191;-77
2022/10/03 06:10:13;;;;;;;23.03;13.43;;;;;;;;;;5105649;28;20179;-77
2022/10/03 06:12:48;;;;;;;18.63;11.87;;;;;;;;;;5100250;27;20179;-76
2022/10/03 06:15:19;;;;;;;30.07;13.53;;;;;;;;;;5109895;27;20207;-77
2022/10/03 06:17:52;;;;;;;29.10;15.17;;;;;;;;;;5103975;27;20238;-77
2022/10/03 06:20:18;;;;;;;41.07;13.90;;;;;;;;;;5115930;27;20171;-77
2022/10/03 06:23:01;;;;;;;32.07;12.73;;;;;;;;;;5100362;27;20172;-76
2022/10/03 06:25:39;;;;;;;27.40;13.27;;;;;;;;;;5100591;27;20186;-77
2022/10/03 06:28:23;;;;;;;23.27;12.60;;;;;;;;;;5108530;27;20175;-77
2022/10/03 06:31:00;;;;;;;14.83;10.80;;;;;;;;;;5103787;28;20201;-77
2022/10/03 06:33:44;;;;;;;19.17;12.17;;;;;;;;;;5106575;27;20224;-77
2022/10/03 06:36:20;;;;;;;23.87;12.50;;;;;;;;;;5109604;27;20176;-77
2022/10/03 06:39:05;;;;;;;16.80;11.60;;;;;;;;;;5099484;27;20203;-77
2022/10/03 06:41:50;;;;;;;20.90;12.57;;;;;;;;;;5098713;27;20167;-77
2022/10/03 06:44:21;;;;;;;14.83;11.27;;;;;;;;;;5120133;27;20203;-76
2022/10/03 06:47:05;;;;;;;15.30;11.63;;;;;;;;;;5100239;27;20281;-77
2022/10/03 06:49:49;;;;;;;20.83;13.63;;;;;;;;;;5105839;27;20197;-76
2022/10/03 06:52:20;;;;;;;23.13;13.03;;;;;;;;;;5098394;27;20211;-77
2022/10/03 06:55:03;;;;;;;22.37;14.83;;;;;;;;;;5106576;27;20183;-77
2022/10/03 06:57:33;;;;;;;21.50;13.13;;;;;;;;;;5103591;28;20231;-77
2022/10/03 07:00:11;;;;;;;27.27;13.07;;;;;;;;;;5102195;27;20179;-77
2022/10/03 07:02:42;;;;;;;25.33;13.90;;;;;;;;;;5096920;28;20235;-77
2022/10/03 07:05:26;;;;;;;20.87;13.30;;;;;;;;;;5102024;27;20177;-77
2022/10/03 07:08:07;;;;;;;23.23;13.07;;;;;;;;;;5119010;27;20168;-77
2022/10/03 07:10:33;;;;;;;25.53;12.93;;;;;;;;;;5103462;27;20183;-77
2022/10/03 07:13:02;;;;;;;22.70;14.13;;;;;;;;;;5100342;27;20269;-77
2022/10/03 07:15:31;;;;;;;22.13;12.83;;;;;;;;;;5098283;27;20176;-77
2022/10/03 07:18:10;;;;;;;20.83;12.90;;;;;;;;;;5096931;27;20196;-76
2022/10/03 07:20:54;;;;;;;22.90;13.67;;;;;;;;;;5100929;27;20180;-76
2022/10/03 07:23:29;;;;;;;22.80;14.83;;;;;;;;;;5101383;27;20268;-77
2022/10/03 07:25:54;;;;;;;23.63;15.03;;;;;;;;;;5107001;28;20167;-77
2022/10/03 07:28:41;;;;;;;17.70;12.13;;;;;;;;;;5103889;27;20176;-76
2022/10/03 07:31:06;;;;;;;25.63;15.07;;;;;;;;;;5099690;27;20206;-76
2022/10/03 07:33:44;;;;;;;20.70;12.00;;;;;;;;;;5107166;27;20180;-77
2022/10/03 07:39:08;;;;;;;20.00;12.03;;;;;;;;;;5123615;27;20285;-76
2022/10/03 07:41:55;;;;;;;19.97;12.80;;;;;;;;;;5104943;27;20206;-76
2022/10/03 07:44:41;;;;;;;18.27;12.67;;;;;;;;;;5127864;27;20183;-77
2022/10/03 07:47:25;;;;;;;20.53;14.27;;;;;;;;;;5096205;27;20177;-77
2022/10/03 07:49:56;;;;;;;24.43;14.73;;;;;;;;;;5121508;27;20183;-77
2022/10/03 07:52:33;;;;;;;19.13;13.63;;;;;;;;;;5110723;28;20214;-76
2022/10/03 07:55:13;;;;;;;22.73;14.90;;;;;;;;;;5102429;28;20252;-77
2022/10/03 07:57:38;;;;;;;23.30;13.70;;;;;;;;;;5121970;27;20288;-77
2022/10/03 08:00:07;;;;;;;20.80;14.67;;;;;;;;;;5100999;28;20275;-77
2022/10/03 08:02:38;;;;;;;19.47;12.70;;;;;;;;;;5104027;28;20178;-77
2022/10/03 08:05:13;;;;;;;23.37;15.40;;;;;;;;;;5113733;28;20182;-76
2022/10/03 08:07:47;;;;;;;21.23;14.00;;;;;;;;;;5098053;28;20193;-77
2022/10/03 08:10:31;;;;;;;20.70;14.00;;;;;;;;;;5109516;28;20174;-76
2022/10/03 08:13:02;;;;;;;18.97;14.20;;;;;;;;;;5113726;28;20180;-77
2022/10/03 08:15:46;;;;;;;18.47;14.33;;;;;;;;;;5104908;28;20213;-77
2022/10/03 08:18:17;;;;;;;19.90;14.93;;;;;;;;;;5109862;28;20227;-77
2022/10/03 08:20:48;;;;;;;15.47;12.77;;;;;;;;;;5109233;28;20172;-76
2022/10/03 08:23:32;;;;;;;24.77;14.93;;;;;;;;;;5121184;28;20220;-76
2022/10/03 08:25:57;;;;;;;19.33;13.27;;;;;;;;;;5119921;28;20208;-76
2022/10/03 08:28:37;;;;;;;21.57;15.43;;;;;;;;;;5103230;28;20180;-76
2022/10/03 08:31:02;;;;;;;26.37;18.03;;;;;;;;;;5100736;28;20172;-77
2022/10/03 08:33:40;;;;;;;19.83;13.80;;;;;;;;;;5103750;28;20172;-77
2022/10/03 08:36:25;;;;;;;20.30;13.00;;;;;;;;;;5097793;28;20188;-77
2022/10/03 08:39:00;;;;;;;20.57;12.77;;;;;;;;;;5102277;28;20234;-77
2022/10/03 08:41:43;;;;;;;19.57;13.57;;;;;;;;;;5107045;28;20175;-77
2022/10/03 08:44:24;;;;;;;21.80;14.13;;;;;;;;;;5101890;28;20172;-77
2022/10/03 08:47:02;;;;;;;18.43;12.53;;;;;;;;;;5100311;28;20262;-76
2022/10/03 08:49:50;;;;;;;19.27;12.33;;;;;;;;;;5103700;28;20198;-77
2022/10/03 08:52:17;;;;;;;24.27;12.90;;;;;;;;;;5104127;28;20567;-76
2022/10/03 08:55:01;;;;;;;22.97;13.03;;;;;;;;;;5112878;28;20176;-77
2022/10/03 08:57:44;;;;;;;16.77;12.77;;;;;;;;;;5108695;28;20275;-77
2022/10/03 09:00:21;;;;;;;20.87;12.70;;;;;;;;;;5110313;28;20176;-77
2022/10/03 09:02:52;;;;;;;22.13;13.43;;;;;;;;;;5101644;28;20194;-77
2022/10/03 09:05:36;;;;;;;15.70;11.97;;;;;;;;;;5099885;27;20173;-77
2022/10/03 09:08:11;;;;;;;13.10;10.20;;;;;;;;;;5113021;28;20271;-76
2022/10/03 09:10:45;;;;;;;13.50;10.07;;;;;;;;;;5102165;27;20239;-77
2022/10/03 09:13:19;;;;;;;13.63;9.50;;;;;;;;;;5134778;27;20166;-77
2022/10/03 09:16:03;;;;;;;11.97;9.13;;;;;;;;;;5108621;27;20177;-77
2022/10/03 09:18:28;;;;;;;15.17;10.10;;;;;;;;;;5108776;27;20473;-76
2022/10/03 09:20:53;;;;;;;10.77;8.47;;;;;;;;;;5114154;27;20171;-76
2022/10/03 09:23:21;;;;;;;14.00;8.60;;;;;;;;;;5110226;27;20171;-77
2022/10/03 09:26:05;;;;;;;20.33;9.73;;;;;;;;;;5111398;27;20188;-77
2022/10/03 09:28:46;;;;;;;14.70;10.10;;;;;;;;;;5110230;27;20180;-77
2022/10/03 09:31:30;;;;;;;11.43;9.00;;;;;;;;;;5124798;27;20184;-77
2022/10/03 09:33:59;;;;;;;16.00;9.60;;;;;;;;;;5111740;27;20179;-77
2022/10/03 09:36:43;;;;;;;15.83;10.67;;;;;;;;;;5107102;27;20181;-77
2022/10/03 09:39:27;;;;;;;16.20;10.27;;;;;;;;;;5110846;27;20242;-77
2022/10/03 09:42:11;;;;;;;13.70;10.03;;;;;;;;;;5112413;27;20169;-77
2022/10/03 09:44:45;;;;;;;15.57;9.00;;;;;;;;;;5100280;27;20173;-77
2022/10/03 09:47:22;;;;;;;13.90;9.97;;;;;;;;;;5109344;27;20178;-76
2022/10/03 09:50:11;;;;;;;14.47;10.50;;;;;;;;;;5115120;27;20187;-77
2022/10/03 09:52:37;;;;;;;11.67;10.23;;;;;;;;;;5057027;27;20188;-77
2022/10/03 09:55:11;;;;;;;11.80;8.97;;;;;;;;;;5105282;27;20332;-78
2022/10/03 09:57:55;;;;;;;22.07;9.40;;;;;;;;;;5124975;27;20316;-77
2022/10/03 10:00:22;;;;;;;12.27;8.37;;;;;;;;;;5125624;27;20215;-77
2022/10/03 10:02:51;;;;;;;12.90;9.23;;;;;;;;;;5110105;27;20206;-77
2022/10/03 10:05:35;;;;;;;15.43;7.93;;;;;;;;;;5100230;27;20187;-77
2022/10/03 10:08:15;;;;;;;12.40;8.83;;;;;;;;;;5105754;28;20189;-77
2022/10/03 10:10:53;;;;;;;13.57;9.00;;;;;;;;;;5100120;27;20178;-77
2022/10/03 10:13:27;;;;;;;11.83;8.50;;;;;;;;;;5130853;27;20187;-77
2022/10/03 10:15:52;;;;;;;10.67;8.20;;;;;;;;;;5108673;27;20215;-77
2022/10/03 10:18:37;;;;;;;12.00;8.10;;;;;;;;;;5109108;27;20224;-76
2022/10/03 10:21:09;;;;;;;11.77;8.57;;;;;;;;;;5132659;27;20174;-77
2022/10/03 10:23:54;;;;;;;14.83;9.50;;;;;;;;;;5125631;27;20169;-77
2022/10/03 10:26:38;;;;;;;9.73;8.70;;;;;;;;;;5114109;27;20177;-77
2022/10/03 10:29:18;;;;;;;12.03;10.03;;;;;;;;;;5107680;28;20181;-77
2022/10/03 10:32:03;;;;;;;11.97;8.87;;;;;;;;;;5106318;27;20181;-77
2022/10/03 10:34:38;;;;;;;13.33;8.27;;;;;;;;;;5102456;27;20211;-77
2022/10/03 10:37:03;;;;;;;11.50;8.23;;;;;;;;;;5100247;28;20183;-76
2022/10/03 10:39:47;;;;;;;14.13;9.13;;;;;;;;;;5106925;27;20198;-77
2022/10/03 10:42:12;;;;;;;9.70;7.27;;;;;;;;;;5105256;27;20171;-77
2022/10/03 10:44:56;;;;;;;10.10;7.63;;;;;;;;;;5106391;27;20226;-77
2022/10/03 10:47:26;;;;;;;9.27;7.90;;;;;;;;;;5113262;27;20188;-77
2022/10/03 10:50:03;;;;;;;13.07;8.33;;;;;;;;;;5101599;28;20278;-77
2022/10/03 10:52:47;;;;;;;16.10;9.30;;;;;;;;;;5111306;27;20242;-77
2022/10/03 10:55:31;;;;;;;11.07;8.60;;;;;;;;;;5114276;27;20278;-77
2022/10/03 10:58:09;;;;;;;13.63;7.73;;;;;;;;;;5091744;28;20243;-76
2022/10/03 11:00:38;;;;;;;13.37;8.43;;;;;;;;;;5105197;28;20262;-77
2022/10/03 11:03:06;;;;;;;10.77;9.17;;;;;;;;;;5105560;28;20175;-77
2022/10/03 11:05:50;;;;;;;12.10;8.30;;;;;;;;;;5104767;28;20177;-77
2022/10/03 11:08:34;;;;;;;13.90;9.67;;;;;;;;;;5108169;28;20196;-77
2022/10/03 11:11:19;;;;;;;12.63;8.03;;;;;;;;;;5104826;28;20175;-77
2022/10/03 11:13:45;;;;;;;11.87;9.20;;;;;;;;;;5103473;28;20248;-77
2022/10/03 11:16:30;;;;;;;13.10;9.87;;;;;;;;;;5101883;28;20183;-77
2022/10/03 11:19:04;;;;;;;8.77;7.90;;;;;;;;;;5107847;28;20255;-77
2022/10/03 11:21:53;;;;;;;9.43;8.07;;;;;;;;;;5105911;28;20175;-77
2022/10/03 11:24:19;;;;;;;10.53;8.40;;;;;;;;;;5084131;28;20187;-77
2022/10/03 11:26:56;;;;;;;12.37;8.37;;;;;;;;;;5096563;28;20175;-77
2022/10/03 11:29:41;;;;;;;9.30;8.27;;;;;;;;;;5105295;28;20192;-77
2022/10/03 11:32:25;;;;;;;9.90;7.67;;;;;;;;;;5096402;28;20193;-77
2022/10/03 11:34:50;;;;;;;10.57;8.03;;;;;;;;;;5098350;28;20187;-76
2022/10/03 11:37:34;;;;;;;13.40;7.90;;;;;;;;;;5102659;28;20184;-77
2022/10/03 11:40:31;;;;;;;12.23;8.73;;;;;;;;;;5103633;28;20179;-76
2022/10/03 11:43:19;;;;;;;8.47;6.97;;;;;;;;;;5061938;28;20195;-76
2022/10/03 11:45:45;;;;;;;10.50;7.60;;;;;;;;;;5100822;28;20184;-77
2022/10/03 11:48:28;;;;;;;11.67;9.07;;;;;;;;;;5103248;28;20183;-77
2022/10/03 11:51:11;;;;;;;13.73;9.47;;;;;;;;;;5098447;28;20251;-76
2022/10/03 11:53:39;;;;;;;12.00;8.80;;;;;;;;;;5108040;28;20183;-77
2022/10/03 11:56:15;;;;;;;15.30;8.07;;;;;;;;;;5097934;28;20207;-77
2022/10/03 11:58:47;;;;;;;9.87;7.70;;;;;;;;;;5095130;28;20257;-77
2022/10/03 12:01:12;;;;;;;14.43;8.60;;;;;;;;;;5100805;28;20359;-77
2022/10/03 12:03:43;;;;;;;11.30;7.43;;;;;;;;;;5101766;28;20204;-77
2022/10/03 12:08:56;;;;;;;10.00;8.10;;;;;;;;;;5098900;28;20190;-77
2022/10/03 12:11:34;;;;;;;9.10;7.83;;;;;;;;;;5103376;28;20188;-77
2022/10/03 12:14:08;;;;;;;12.17;7.40;;;;;;;;;;5100567;28;20192;-77
2022/10/03 12:16:56;;;;;;;10.73;7.70;;;;;;;;;;5100935;28;20182;-77
2022/10/03 12:19:22;;;;;;;10.10;6.40;;;;;;;;;;5103018;28;20209;-77
2022/10/03 12:21:56;;;;;;;8.07;6.57;;;;;;;;;;5107787;28;20194;-77
2022/10/03 12:24:26;;;;;;;8.27;6.23;;;;;;;;;;5096419;28;20271;-77
2022/10/03 12:26:55;;;;;;;7.37;6.47;;;;;;;;;;5104912;28;20270;-77
2022/10/03 12:29:22;;;;;;;10.33;6.53;;;;;;;;;;5102355;28;20188;-77
2022/10/03 12:32:06;;;;;;;12.60;6.47;;;;;;;;;;5099264;28;20359;-77
2022/10/03 12:34:37;;;;;;;10.47;7.43;;;;;;;;;;5103445;28;20191;-77
2022/10/03 12:37:22;;;;;;;10.97;6.23;;;;;;;;;;5092511;28;20185;-77
2022/10/03 12:40:00;;;;;;;7.60;6.03;;;;;;;;;;5104693;28;20215;-77
2022/10/03 12:42:28;;;;;;;8.07;6.20;;;;;;;;;;5110037;28;20175;-77
2022/10/03 12:44:55;;;;;;;8.40;7.47;;;;;;;;;;5099116;28;20304;-76
2022/10/03 12:47:23;;;;;;;9.70;8.10;;;;;;;;;;5104971;28;20182;-77
2022/10/03 12:49:58;;;;;;;11.83;7.67;;;;;;;;;;5098543;28;20179;-77
2022/10/03 12:52:29;;;;;;;7.13;5.90;;;;;;;;;;5097932;28;20199;-77
2022/10/03 12:55:13;;;;;;;8.90;5.93;;;;;;;;;;5102660;28;20275;-77
2022/10/03 12:57:45;;;;;;;11.43;6.93;;;;;;;;;;5097664;28;20253;-77
2022/10/03 13:00:31;;;;;;;10.27;8.50;;;;;;;;;;5102498;28;20169;-77
2022/10/03 13:03:16;;;;;;;6.97;6.20;;;;;;;;;;5100166;28;20176;-77
2022/10/03 13:05:44;;;;;;;9.73;6.23;;;;;;;;;;5118262;27;20201;-77
2022/10/03 13:08:33;;;;;;;10.40;6.77;;;;;;;;;;5109773;28;20229;-77
2022/10/03 13:11:14;;;;;;;11.10;5.47;;;;;;;;;;5098620;28;20176;-77
2022/10/03 13:13:58;;;;;;;10.17;5.40;;;;;;;;;;5100510;28;20206;-77
2022/10/03 13:16:29;;;;;;;7.50;5.37;;;;;;;;;;5104374;28;20184;-77
2022/10/03 13:19:14;;;;;;;9.67;6.73;;;;;;;;;;5105674;28;20227;-77
2022/10/03 13:21:46;;;;;;;8.70;6.17;;;;;;;;;;5099349;28;20176;-77
2022/10/03 13:24:17;;;;;;;7.37;5.93;;;;;;;;;;5107155;28;20175;-77
2022/10/03 13:26:49;;;;;;;8.70;6.10;;;;;;;;;;5104214;28;20172;-77
2022/10/03 13:29:22;;;;;;;8.80;5.87;;;;;;;;;;5097764;28;20188;-77
2022/10/03 13:31:54;;;;;;;7.20;6.07;;;;;;;;;;5102122;28;20182;-77
2022/10/03 13:34:21;;;;;;;9.03;5.70;;;;;;;;;;5097365;28;20178;-77
2022/10/03 13:37:00;;;;;;;8.77;5.67;;;;;;;;;;5103341;28;20231;-77
2022/10/03 13:39:28;;;;;;;6.50;5.17;;;;;;;;;;5099535;28;20199;-76
2022/10/03 13:42:00;;;;;;;9.53;5.47;;;;;;;;;;5108501;28;20202;-76
2022/10/03 13:44:37;;;;;;;7.40;4.90;;;;;;;;;;5120427;27;20195;-77
2022/10/03 13:47:15;;;;;;;8.33;5.40;;;;;;;;;;5106585;28;20196;-77
2022/10/03 13:49:50;;;;;;;10.07;6.03;;;;;;;;;;5100764;28;20233;-77
2022/10/03 13:52:34;;;;;;;7.00;5.13;;;;;;;;;;5096671;28;20203;-77
2022/10/03 13:55:18;;;;;;;8.27;5.67;;;;;;;;;;5099628;28;20171;-77
2022/10/03 13:57:59;;;;;;;9.53;6.37;;;;;;;;;;5096674;28;20225;-77
2022/10/03 14:00:29;;;;;;;9.13;4.73;;;;;;;;;;5102944;28;20184;-78
2022/10/03 14:02:58;;;;;;;7.80;5.30;;;;;;;;;;5122889;27;20179;-77
2022/10/03 14:05:24;;;;;;;13.50;6.10;;;;;;;;;;5111966;28;20268;-77
2022/10/03 14:07:58;;;;;;;12.00;5.67;;;;;;;;;;5102992;28;20307;-76
2022/10/03 14:10:47;;;;;;;10.53;5.33;;;;;;;;;;5100939;28;20168;-77
2022/10/03 14:13:16;;;;;;;8.90;5.20;;;;;;;;;;5102368;28;20191;-77
2022/10/03 14:15:42;;;;;;;6.23;5.43;;;;;;;;;;5100009;28;20182;-77
2022/10/03 14:18:07;;;;;;;6.43;4.73;;;;;;;;;;5105735;28;20287;-78
2022/10/03 14:20:37;;;;;;;7.27;5.13;;;;;;;;;;5098923;27;20189;-78
2022/10/03 14:23:21;;;;;;;7.30;5.23;;;;;;;;;;5102832;28;20177;-77
2022/10/03 14:25:52;;;;;;;6.63;5.30;;;;;;;;;;5100422;28;20169;-77
2022/10/03 14:28:25;;;;;;;8.10;5.30;;;;;;;;;;5103678;28;20191;-77
2022/10/03 14:30:56;;;;;;;7.33;4.57;;;;;;;;;;5108254;28;20184;-77
2022/10/03 14:33:35;;;;;;;5.63;4.60;;;;;;;;;;5095816;28;20190;-77
2022/10/03 14:36:07;;;;;;;6.07;4.43;;;;;;;;;;5100382;28;20208;-77
2022/10/03 14:38:56;;;;;;;8.60;4.43;;;;;;;;;;5100741;28;20211;-78
2022/10/03 14:41:31;;;;;;;6.27;5.13;;;;;;;;;;5103266;28;20182;-77
2022/10/03 14:44:00;;;;;;;5.60;4.50;;;;;;;;;;5106258;28;20172;-78
2022/10/03 14:46:27;;;;;;;5.10;4.60;;;;;;;;;;5104003;28;20184;-78
2022/10/03 14:49:02;;;;;;;6.27;5.10;;;;;;;;;;5099695;28;20186;-78
2022/10/03 14:51:39;;;;;;;10.30;4.87;;;;;;;;;;5103328;28;20208;-77
2022/10/03 14:54:06;;;;;;;7.97;4.43;;;;;;;;;;5094328;28;20178;-78
2022/10/03 14:56:33;;;;;;;7.83;3.97;;;;;;;;;;5100584;28;20186;-77
2022/10/03 14:59:00;;;;;;;5.70;4.27;;;;;;;;;;5100410;28;20233;-77
2022/10/03 15:01:27;;;;;;;5.60;3.93;;;;;;;;;;5099211;28;20183;-77
2022/10/03 15:04:05;;;;;;;6.93;3.90;;;;;;;;;;5103816;28;20195;-77
2022/10/03 15:06:31;;;;;;;6.10;3.73;;;;;;;;;;5101841;28;20198;-78
2022/10/03 15:08:58;;;;;;;9.73;5.17;;;;;;;;;;5100964;28;20174;-78
2022/10/03 15:11:34;;;;;;;6.17;4.20;;;;;;;;;;5112463;27;20177;-78
2022/10/03 15:14:08;;;;;;;6.47;4.40;;;;;;;;;;5097842;28;20190;-78
2022/10/03 15:16:53;;;;;;;5.60;4.10;;;;;;;;;;5095914;28;20177;-77
2022/10/03 15:19:21;;;;;;;5.53;4.57;;;;;;;;;;5099624;27;20204;-77
2022/10/03 15:21:50;;;;;;;6.07;4.60;;;;;;;;;;5097898;28;20175;-77
2022/10/03 15:24:24;;;;;;;4.90;4.20;;;;;;;;;;5098474;28;20184;-78
2022/10/03 15:27:02;;;;;;;4.77;4.33;;;;;;;;;;5096106;28;20180;-77
2022/10/03 15:29:29;;;;;;;4.77;4.03;;;;;;;;;;5104265;28;20179;-78
2022/10/03 15:31:56;;;;;;;5.67;4.57;;;;;;;;;;5097090;28;20177;-78
2022/10/03 15:34:29;;;;;;;7.27;4.50;;;;;;;;;;5095277;28;20188;-78